sensor_id;sensor_type;location;lat;lon;timestamp;P1;durP1;ratioP1;P2;durP2;ratioP2
5456;SDS011;2751;49.802;9.944;2023-03-05T00:01:58;16.80;;;9.60;;
5456;SDS011;2751;49.802;9.944;2023-03-05T00:04:25;15.53;;;9.27;;
5456;SDS011;2751;49.802;9.944;2023-03-05T00:06:52;17.30;;;8.80;;
5456;SDS011;2751;49.802;9.944;2023-03-05T00:09:19;16.40;;;8.90;;
5456;SDS011;2751;49.802;9.944;2023-03-05T00:11:46;16.10;;;9.30;;
5456;SDS011;2751;49.802;9.944;2023-03-05T00:14:17;19.40;;;10.20;;
5456;SDS011;2751;49.802;9.944;2023-03-05T00:16:44;13.93;;;8.13;;
5456;SDS011;2751;49.802;9.944;2023-03-05T00:19:12;17.03;;;9.60;;
5456;SDS011;2751;49.802;9.944;2023-03-05T00:21:40;16.30;;;9.10;;
5456;SDS011;2751;49.802;9.944;2023-03-05T00:24:09;19.37;;;9.20;;
5456;SDS011;2751;49.802;9.944;2023-03-05T00:26:38;16.60;;;9.70;;
5456;SDS011;2751;49.802;9.944;2023-03-05T00:29:06;20.00;;;10.93;;
5456;SDS011;2751;49.802;9.944;2023-03-05T00:31:34;18.07;;;10.03;;
5456;SDS011;2751;49.802;9.944;2023-03-05T00:34:03;14.73;;;8.77;;
5456;SDS011;2751;49.802;9.944;2023-03-05T00:36:33;14.80;;;9.80;;
5456;SDS011;2751;49.802;9.944;2023-03-05T00:39:04;20.07;;;10.33;;
5456;SDS011;2751;49.802;9.944;2023-03-05T00:41:30;15.20;;;9.63;;
5456;SDS011;2751;49.802;9.944;2023-03-05T00:43:58;15.27;;;9.57;;
5456;SDS011;2751;49.802;9.944;2023-03-05T00:46:25;17.03;;;10.10;;
5456;SDS011;2751;49.802;9.944;2023-03-05T00:48:52;19.43;;;10.27;;
5456;SDS011;2751;49.802;9.944;2023-03-05T00:51:19;18.90;;;9.80;;
5456;SDS011;2751;49.802;9.944;2023-03-05T00:53:48;15.63;;;10.23;;
5456;SDS011;2751;49.802;9.944;2023-03-05T00:56:15;19.43;;;10.63;;
5456;SDS011;2751;49.802;9.944;2023-03-05T00:58:42;16.20;;;9.93;;
5456;SDS011;2751;49.802;9.944;2023-03-05T01:01:09;16.17;;;9.30;;
5456;SDS011;2751;49.802;9.944;2023-03-05T01:03:36;18.97;;;10.40;;
5456;SDS011;2751;49.802;9.944;2023-03-05T01:06:04;16.03;;;9.23;;
5456;SDS011;2751;49.802;9.944;2023-03-05T01:08:32;17.60;;;10.63;;
5456;SDS011;2751;49.802;9.944;2023-03-05T01:11:01;17.60;;;10.17;;
5456;SDS011;2751;49.802;9.944;2023-03-05T01:13:28;16.70;;;10.70;;
5456;SDS011;2751;49.802;9.944;2023-03-05T01:15:55;16.80;;;9.30;;
5456;SDS011;2751;49.802;9.944;2023-03-05T01:18:22;18.90;;;10.70;;
5456;SDS011;2751;49.802;9.944;2023-03-05T01:20:49;20.13;;;9.80;;
5456;SDS011;2751;49.802;9.944;2023-03-05T01:23:16;17.13;;;10.20;;
5456;SDS011;2751;49.802;9.944;2023-03-05T01:25:43;13.03;;;9.43;;
5456;SDS011;2751;49.802;9.944;2023-03-05T01:28:11;22.13;;;10.90;;
5456;SDS011;2751;49.802;9.944;2023-03-05T01:30:38;19.97;;;10.37;;
5456;SDS011;2751;49.802;9.944;2023-03-05T01:33:05;20.53;;;11.23;;
5456;SDS011;2751;49.802;9.944;2023-03-05T01:35:31;17.13;;;11.20;;
5456;SDS011;2751;49.802;9.944;2023-03-05T01:37:58;20.17;;;11.40;;
5456;SDS011;2751;49.802;9.944;2023-03-05T01:40:26;18.23;;;12.03;;
5456;SDS011;2751;49.802;9.944;2023-03-05T01:42:56;20.13;;;13.10;;
5456;SDS011;2751;49.802;9.944;2023-03-05T01:45:26;18.87;;;12.57;;
5456;SDS011;2751;49.802;9.944;2023-03-05T01:47:55;19.00;;;12.60;;
5456;SDS011;2751;49.802;9.944;2023-03-05T01:50:23;19.83;;;12.50;;
5456;SDS011;2751;49.802;9.944;2023-03-05T01:52:51;22.50;;;13.17;;
5456;SDS011;2751;49.802;9.944;2023-03-05T01:55:22;23.67;;;13.03;;
5456;SDS011;2751;49.802;9.944;2023-03-05T01:57:52;20.07;;;10.90;;
5456;SDS011;2751;49.802;9.944;2023-03-05T02:00:21;17.63;;;8.40;;
5456;SDS011;2751;49.802;9.944;2023-03-05T02:02:53;19.20;;;11.30;;
5456;SDS011;2751;49.802;9.944;2023-03-05T02:05:22;19.57;;;11.50;;
5456;SDS011;2751;49.802;9.944;2023-03-05T02:07:53;17.93;;;11.57;;
5456;SDS011;2751;49.802;9.944;2023-03-05T02:10:22;22.10;;;11.80;;
5456;SDS011;2751;49.802;9.944;2023-03-05T02:12:52;17.57;;;11.23;;
5456;SDS011;2751;49.802;9.944;2023-03-05T02:15:21;14.57;;;9.60;;
5456;SDS011;2751;49.802;9.944;2023-03-05T02:17:49;15.60;;;10.20;;
5456;SDS011;2751;49.802;9.944;2023-03-05T02:20:17;18.33;;;10.23;;
5456;SDS011;2751;49.802;9.944;2023-03-05T02:22:47;19.73;;;10.33;;
5456;SDS011;2751;49.802;9.944;2023-03-05T02:25:14;19.70;;;12.33;;
5456;SDS011;2751;49.802;9.944;2023-03-05T02:27:45;17.67;;;10.50;;
5456;SDS011;2751;49.802;9.944;2023-03-05T02:30:16;17.40;;;10.37;;
5456;SDS011;2751;49.802;9.944;2023-03-05T02:32:44;19.67;;;11.20;;
5456;SDS011;2751;49.802;9.944;2023-03-05T02:35:11;10.57;;;5.83;;
5456;SDS011;2751;49.802;9.944;2023-03-05T02:37:38;14.83;;;8.80;;
5456;SDS011;2751;49.802;9.944;2023-03-05T02:40:07;18.67;;;7.80;;
5456;SDS011;2751;49.802;9.944;2023-03-05T02:42:34;13.40;;;6.70;;
5456;SDS011;2751;49.802;9.944;2023-03-05T02:45:02;10.87;;;7.30;;
5456;SDS011;2751;49.802;9.944;2023-03-05T02:47:30;10.97;;;7.83;;
5456;SDS011;2751;49.802;9.944;2023-03-05T02:49:56;15.40;;;8.00;;
5456;SDS011;2751;49.802;9.944;2023-03-05T02:52:24;10.20;;;6.30;;
5456;SDS011;2751;49.802;9.944;2023-03-05T02:54:51;8.70;;;7.13;;
5456;SDS011;2751;49.802;9.944;2023-03-05T02:57:20;11.77;;;6.37;;
5456;SDS011;2751;49.802;9.944;2023-03-05T02:59:47;9.57;;;6.50;;
5456;SDS011;2751;49.802;9.944;2023-03-05T03:02:13;7.00;;;5.43;;
5456;SDS011;2751;49.802;9.944;2023-03-05T03:04:41;7.77;;;5.30;;
5456;SDS011;2751;49.802;9.944;2023-03-05T03:07:08;12.50;;;6.70;;
5456;SDS011;2751;49.802;9.944;2023-03-05T03:09:35;6.43;;;5.00;;
5456;SDS011;2751;49.802;9.944;2023-03-05T03:12:02;9.07;;;5.20;;
5456;SDS011;2751;49.802;9.944;2023-03-05T03:14:31;6.00;;;4.77;;
5456;SDS011;2751;49.802;9.944;2023-03-05T03:17:03;11.17;;;5.03;;
5456;SDS011;2751;49.802;9.944;2023-03-05T03:19:30;7.87;;;5.20;;
5456;SDS011;2751;49.802;9.944;2023-03-05T03:21:57;5.87;;;4.50;;
5456;SDS011;2751;49.802;9.944;2023-03-05T03:24:24;7.63;;;5.10;;
5456;SDS011;2751;49.802;9.944;2023-03-05T03:26:50;8.17;;;5.07;;
5456;SDS011;2751;49.802;9.944;2023-03-05T03:29:17;6.53;;;4.43;;
5456;SDS011;2751;49.802;9.944;2023-03-05T03:31:46;6.70;;;5.10;;
5456;SDS011;2751;49.802;9.944;2023-03-05T03:34:13;7.40;;;5.20;;
5456;SDS011;2751;49.802;9.944;2023-03-05T03:36:41;7.43;;;4.67;;
5456;SDS011;2751;49.802;9.944;2023-03-05T03:39:08;6.57;;;4.60;;
5456;SDS011;2751;49.802;9.944;2023-03-05T03:41:35;6.83;;;4.80;;
5456;SDS011;2751;49.802;9.944;2023-03-05T03:44:02;8.10;;;4.50;;
5456;SDS011;2751;49.802;9.944;2023-03-05T03:46:32;10.50;;;4.90;;
5456;SDS011;2751;49.802;9.944;2023-03-05T03:49:00;5.87;;;4.60;;
5456;SDS011;2751;49.802;9.944;2023-03-05T03:51:27;8.10;;;5.20;;
5456;SDS011;2751;49.802;9.944;2023-03-05T03:53:55;6.13;;;5.07;;
5456;SDS011;2751;49.802;9.944;2023-03-05T03:56:22;7.43;;;5.37;;
5456;SDS011;2751;49.802;9.944;2023-03-05T03:58:48;8.27;;;4.70;;
5456;SDS011;2751;49.802;9.944;2023-03-05T04:01:16;11.07;;;5.17;;
5456;SDS011;2751;49.802;9.944;2023-03-05T04:03:42;7.67;;;4.90;;
5456;SDS011;2751;49.802;9.944;2023-03-05T04:06:11;6.20;;;4.43;;
5456;SDS011;2751;49.802;9.944;2023-03-05T04:08:38;10.90;;;4.20;;
5456;SDS011;2751;49.802;9.944;2023-03-05T04:11:05;7.57;;;4.93;;
5456;SDS011;2751;49.802;9.944;2023-03-05T04:13:32;7.53;;;5.20;;
5456;SDS011;2751;49.802;9.944;2023-03-05T04:15:59;10.80;;;5.10;;
5456;SDS011;2751;49.802;9.944;2023-03-05T04:18:26;8.17;;;5.00;;
5456;SDS011;2751;49.802;9.944;2023-03-05T04:20:53;7.27;;;4.70;;
5456;SDS011;2751;49.802;9.944;2023-03-05T04:23:22;9.00;;;4.93;;
5456;SDS011;2751;49.802;9.944;2023-03-05T04:25:48;8.57;;;5.10;;
5456;SDS011;2751;49.802;9.944;2023-03-05T04:28:15;7.20;;;5.73;;
5456;SDS011;2751;49.802;9.944;2023-03-05T04:30:42;9.73;;;5.10;;
5456;SDS011;2751;49.802;9.944;2023-03-05T04:33:09;6.93;;;4.73;;
5456;SDS011;2751;49.802;9.944;2023-03-05T04:35:37;5.23;;;4.10;;
5456;SDS011;2751;49.802;9.944;2023-03-05T04:38:03;8.90;;;5.30;;
5456;SDS011;2751;49.802;9.944;2023-03-05T04:40:32;5.83;;;4.03;;
5456;SDS011;2751;49.802;9.944;2023-03-05T04:42:59;7.20;;;4.63;;
5456;SDS011;2751;49.802;9.944;2023-03-05T04:45:26;9.60;;;5.40;;
5456;SDS011;2751;49.802;9.944;2023-03-05T04:47:53;8.60;;;5.00;;
5456;SDS011;2751;49.802;9.944;2023-03-05T04:50:20;7.50;;;4.30;;
5456;SDS011;2751;49.802;9.944;2023-03-05T04:52:47;8.00;;;4.70;;
5456;SDS011;2751;49.802;9.944;2023-03-05T04:55:14;8.70;;;5.50;;
5456;SDS011;2751;49.802;9.944;2023-03-05T04:57:43;7.50;;;4.97;;
5456;SDS011;2751;49.802;9.944;2023-03-05T05:00:11;8.37;;;4.90;;
5456;SDS011;2751;49.802;9.944;2023-03-05T05:02:41;7.43;;;4.87;;
5456;SDS011;2751;49.802;9.944;2023-03-05T05:05:09;5.97;;;4.67;;
5456;SDS011;2751;49.802;9.944;2023-03-05T05:07:37;7.30;;;5.27;;
5456;SDS011;2751;49.802;9.944;2023-03-05T05:10:04;6.73;;;4.00;;
5456;SDS011;2751;49.802;9.944;2023-03-05T05:12:32;10.47;;;5.23;;
5456;SDS011;2751;49.802;9.944;2023-03-05T05:15:02;8.53;;;4.40;;
5456;SDS011;2751;49.802;9.944;2023-03-05T05:17:29;7.30;;;5.20;;
5456;SDS011;2751;49.802;9.944;2023-03-05T05:19:57;5.40;;;4.50;;
5456;SDS011;2751;49.802;9.944;2023-03-05T05:22:24;6.47;;;4.40;;
5456;SDS011;2751;49.802;9.944;2023-03-05T05:24:52;6.57;;;4.23;;
5456;SDS011;2751;49.802;9.944;2023-03-05T05:27:19;6.60;;;4.60;;
5456;SDS011;2751;49.802;9.944;2023-03-05T05:29:46;6.43;;;5.30;;
5456;SDS011;2751;49.802;9.944;2023-03-05T05:32:15;5.80;;;4.40;;
5456;SDS011;2751;49.802;9.944;2023-03-05T05:34:43;7.33;;;4.50;;
5456;SDS011;2751;49.802;9.944;2023-03-05T05:37:10;7.90;;;5.30;;
5456;SDS011;2751;49.802;9.944;2023-03-05T05:39:37;8.87;;;4.80;;
5456;SDS011;2751;49.802;9.944;2023-03-05T05:42:04;12.10;;;4.83;;
5456;SDS011;2751;49.802;9.944;2023-03-05T05:44:31;9.63;;;5.37;;
5456;SDS011;2751;49.802;9.944;2023-03-05T05:46:58;7.83;;;4.93;;
5456;SDS011;2751;49.802;9.944;2023-03-05T05:49:27;5.67;;;4.87;;
5456;SDS011;2751;49.802;9.944;2023-03-05T05:51:54;6.87;;;4.60;;
5456;SDS011;2751;49.802;9.944;2023-03-05T05:54:21;5.90;;;5.13;;
5456;SDS011;2751;49.802;9.944;2023-03-05T05:56:49;7.70;;;4.77;;
5456;SDS011;2751;49.802;9.944;2023-03-05T05:59:15;7.80;;;5.40;;
5456;SDS011;2751;49.802;9.944;2023-03-05T06:01:42;8.77;;;5.40;;
5456;SDS011;2751;49.802;9.944;2023-03-05T06:04:09;5.80;;;4.37;;
5456;SDS011;2751;49.802;9.944;2023-03-05T06:06:37;11.13;;;4.50;;
5456;SDS011;2751;49.802;9.944;2023-03-05T06:09:04;6.37;;;4.07;;
5456;SDS011;2751;49.802;9.944;2023-03-05T06:11:31;5.97;;;4.70;;
5456;SDS011;2751;49.802;9.944;2023-03-05T06:13:58;6.90;;;3.97;;
5456;SDS011;2751;49.802;9.944;2023-03-05T06:16:26;7.63;;;4.50;;
5456;SDS011;2751;49.802;9.944;2023-03-05T06:18:53;6.33;;;4.97;;
5456;SDS011;2751;49.802;9.944;2023-03-05T06:21:20;5.63;;;4.30;;
5456;SDS011;2751;49.802;9.944;2023-03-05T06:23:52;5.67;;;4.27;;
5456;SDS011;2751;49.802;9.944;2023-03-05T06:26:20;5.23;;;3.60;;
5456;SDS011;2751;49.802;9.944;2023-03-05T06:28:47;7.93;;;3.93;;
5456;SDS011;2751;49.802;9.944;2023-03-05T06:31:15;8.60;;;4.50;;
5456;SDS011;2751;49.802;9.944;2023-03-05T06:33:43;10.47;;;4.50;;
5456;SDS011;2751;49.802;9.944;2023-03-05T06:36:11;11.60;;;3.70;;
5456;SDS011;2751;49.802;9.944;2023-03-05T06:38:39;5.50;;;3.97;;
5456;SDS011;2751;49.802;9.944;2023-03-05T06:41:08;5.00;;;3.50;;
5456;SDS011;2751;49.802;9.944;2023-03-05T06:43:37;4.17;;;3.10;;
5456;SDS011;2751;49.802;9.944;2023-03-05T06:46:06;4.97;;;3.60;;
5456;SDS011;2751;49.802;9.944;2023-03-05T06:48:35;5.63;;;3.23;;
5456;SDS011;2751;49.802;9.944;2023-03-05T06:51:03;2.63;;;2.40;;
5456;SDS011;2751;49.802;9.944;2023-03-05T06:53:30;2.90;;;2.60;;
5456;SDS011;2751;49.802;9.944;2023-03-05T06:55:59;2.97;;;2.23;;
5456;SDS011;2751;49.802;9.944;2023-03-05T06:58:27;5.20;;;2.50;;
5456;SDS011;2751;49.802;9.944;2023-03-05T07:00:54;1.50;;;1.33;;
5456;SDS011;2751;49.802;9.944;2023-03-05T07:03:21;3.90;;;1.80;;
5456;SDS011;2751;49.802;9.944;2023-03-05T07:05:48;4.03;;;2.40;;
5456;SDS011;2751;49.802;9.944;2023-03-05T07:08:15;3.47;;;2.70;;
5456;SDS011;2751;49.802;9.944;2023-03-05T07:10:42;3.00;;;2.20;;
5456;SDS011;2751;49.802;9.944;2023-03-05T07:13:09;4.10;;;2.07;;
5456;SDS011;2751;49.802;9.944;2023-03-05T07:15:38;2.50;;;2.10;;
5456;SDS011;2751;49.802;9.944;2023-03-05T07:18:06;3.63;;;2.23;;
5456;SDS011;2751;49.802;9.944;2023-03-05T07:20:33;3.20;;;2.50;;
5456;SDS011;2751;49.802;9.944;2023-03-05T07:23:00;2.73;;;2.20;;
5456;SDS011;2751;49.802;9.944;2023-03-05T07:25:27;3.77;;;2.17;;
5456;SDS011;2751;49.802;9.944;2023-03-05T07:27:54;1.77;;;1.67;;
5456;SDS011;2751;49.802;9.944;2023-03-05T07:30:22;4.67;;;1.90;;
5456;SDS011;2751;49.802;9.944;2023-03-05T07:32:50;3.60;;;2.40;;
5456;SDS011;2751;49.802;9.944;2023-03-05T07:35:17;1.27;;;1.17;;
5456;SDS011;2751;49.802;9.944;2023-03-05T07:37:44;1.53;;;1.40;;
5456;SDS011;2751;49.802;9.944;2023-03-05T07:40:11;2.03;;;1.63;;
5456;SDS011;2751;49.802;9.944;2023-03-05T07:42:38;1.50;;;1.40;;
5456;SDS011;2751;49.802;9.944;2023-03-05T07:45:05;6.17;;;1.70;;
5456;SDS011;2751;49.802;9.944;2023-03-05T07:47:32;2.43;;;1.60;;
5456;SDS011;2751;49.802;9.944;2023-03-05T07:50:02;3.63;;;1.67;;
5456;SDS011;2751;49.802;9.944;2023-03-05T07:52:29;3.40;;;1.50;;
5456;SDS011;2751;49.802;9.944;2023-03-05T07:54:56;1.53;;;1.43;;
5456;SDS011;2751;49.802;9.944;2023-03-05T07:57:23;2.60;;;1.60;;
5456;SDS011;2751;49.802;9.944;2023-03-05T07:59:50;3.10;;;1.70;;
5456;SDS011;2751;49.802;9.944;2023-03-05T08:02:17;2.67;;;1.90;;
5456;SDS011;2751;49.802;9.944;2023-03-05T08:04:44;1.90;;;1.53;;
5456;SDS011;2751;49.802;9.944;2023-03-05T08:07:14;3.57;;;1.37;;
5456;SDS011;2751;49.802;9.944;2023-03-05T08:09:41;4.67;;;1.40;;
5456;SDS011;2751;49.802;9.944;2023-03-05T08:12:08;2.80;;;1.23;;
5456;SDS011;2751;49.802;9.944;2023-03-05T08:14:35;2.63;;;1.53;;
5456;SDS011;2751;49.802;9.944;2023-03-05T08:17:02;2.60;;;1.33;;
5456;SDS011;2751;49.802;9.944;2023-03-05T08:19:30;4.70;;;1.63;;
5456;SDS011;2751;49.802;9.944;2023-03-05T08:21:57;1.43;;;1.30;;
5456;SDS011;2751;49.802;9.944;2023-03-05T08:24:25;1.57;;;1.47;;
5456;SDS011;2751;49.802;9.944;2023-03-05T08:26:53;3.23;;;1.50;;
5456;SDS011;2751;49.802;9.944;2023-03-05T08:29:21;2.30;;;1.43;;
5456;SDS011;2751;49.802;9.944;2023-03-05T08:31:48;0.80;;;0.80;;
5456;SDS011;2751;49.802;9.944;2023-03-05T08:34:17;1.83;;;1.40;;
5456;SDS011;2751;49.802;9.944;2023-03-05T08:36:45;3.60;;;2.07;;
5456;SDS011;2751;49.802;9.944;2023-03-05T08:39:12;1.87;;;1.30;;
5456;SDS011;2751;49.802;9.944;2023-03-05T08:41:40;2.07;;;1.20;;
5456;SDS011;2751;49.802;9.944;2023-03-05T08:44:07;2.10;;;1.33;;
5456;SDS011;2751;49.802;9.944;2023-03-05T08:46:34;2.03;;;1.10;;
5456;SDS011;2751;49.802;9.944;2023-03-05T08:49:01;1.90;;;1.30;;
5456;SDS011;2751;49.802;9.944;2023-03-05T08:51:28;1.23;;;1.03;;
5456;SDS011;2751;49.802;9.944;2023-03-05T08:53:56;2.77;;;1.33;;
5456;SDS011;2751;49.802;9.944;2023-03-05T08:56:25;1.03;;;1.03;;
5456;SDS011;2751;49.802;9.944;2023-03-05T08:58:56;1.50;;;1.20;;
5456;SDS011;2751;49.802;9.944;2023-03-05T09:01:23;1.40;;;1.20;;
5456;SDS011;2751;49.802;9.944;2023-03-05T09:03:50;1.80;;;1.70;;
5456;SDS011;2751;49.802;9.944;2023-03-05T09:06:17;1.37;;;1.27;;
5456;SDS011;2751;49.802;9.944;2023-03-05T09:08:44;2.60;;;1.20;;
5456;SDS011;2751;49.802;9.944;2023-03-05T09:11:11;3.03;;;1.50;;
5456;SDS011;2751;49.802;9.944;2023-03-05T09:13:39;0.80;;;0.80;;
5456;SDS011;2751;49.802;9.944;2023-03-05T09:16:08;1.00;;;1.00;;
5456;SDS011;2751;49.802;9.944;2023-03-05T09:18:37;1.27;;;1.00;;
5456;SDS011;2751;49.802;9.944;2023-03-05T09:21:05;2.17;;;1.33;;
5456;SDS011;2751;49.802;9.944;2023-03-05T09:23:33;2.70;;;1.30;;
5456;SDS011;2751;49.802;9.944;2023-03-05T09:26:00;3.00;;;1.03;;
5456;SDS011;2751;49.802;9.944;2023-03-05T09:28:29;3.50;;;1.30;;
5456;SDS011;2751;49.802;9.944;2023-03-05T09:30:56;2.00;;;1.37;;
5456;SDS011;2751;49.802;9.944;2023-03-05T09:33:27;1.07;;;1.03;;
5456;SDS011;2751;49.802;9.944;2023-03-05T09:35:54;3.00;;;0.90;;
5456;SDS011;2751;49.802;9.944;2023-03-05T09:38:21;1.10;;;1.00;;
5456;SDS011;2751;49.802;9.944;2023-03-05T09:40:51;1.43;;;1.00;;
5456;SDS011;2751;49.802;9.944;2023-03-05T09:43:29;2.13;;;1.10;;
5456;SDS011;2751;49.802;9.944;2023-03-05T09:46:04;1.40;;;1.30;;
5456;SDS011;2751;49.802;9.944;2023-03-05T09:48:52;5.00;;;1.40;;
5456;SDS011;2751;49.802;9.944;2023-03-05T09:51:27;1.57;;;1.20;;
5456;SDS011;2751;49.802;9.944;2023-03-05T09:53:58;1.50;;;0.90;;
5456;SDS011;2751;49.802;9.944;2023-03-05T09:56:28;2.87;;;1.10;;
5456;SDS011;2751;49.802;9.944;2023-03-05T09:58:59;1.10;;;1.00;;
5456;SDS011;2751;49.802;9.944;2023-03-05T10:01:29;1.27;;;1.13;;
5456;SDS011;2751;49.802;9.944;2023-03-05T10:04:05;1.03;;;0.93;;
5456;SDS011;2751;49.802;9.944;2023-03-05T10:06:38;1.33;;;1.10;;
5456;SDS011;2751;49.802;9.944;2023-03-05T10:09:12;0.70;;;0.70;;
5456;SDS011;2751;49.802;9.944;2023-03-05T10:11:46;0.70;;;0.70;;
5456;SDS011;2751;49.802;9.944;2023-03-05T10:14:22;1.80;;;1.00;;
5456;SDS011;2751;49.802;9.944;2023-03-05T10:16:58;2.23;;;0.80;;
5456;SDS011;2751;49.802;9.944;2023-03-05T10:19:49;0.80;;;0.80;;
5456;SDS011;2751;49.802;9.944;2023-03-05T10:22:37;2.93;;;1.20;;
5456;SDS011;2751;49.802;9.944;2023-03-05T10:25:17;1.10;;;1.00;;
5456;SDS011;2751;49.802;9.944;2023-03-05T10:27:49;3.10;;;1.40;;
5456;SDS011;2751;49.802;9.944;2023-03-05T10:30:31;1.33;;;1.10;;
5456;SDS011;2751;49.802;9.944;2023-03-05T10:33:11;1.40;;;1.30;;
5456;SDS011;2751;49.802;9.944;2023-03-05T10:39:00;1.70;;;1.10;;
5456;SDS011;2751;49.802;9.944;2023-03-05T10:41:54;0.90;;;0.90;;
5456;SDS011;2751;49.802;9.944;2023-03-05T10:44:31;2.87;;;1.50;;
5456;SDS011;2751;49.802;9.944;2023-03-05T10:47:01;1.30;;;1.20;;
5456;SDS011;2751;49.802;9.944;2023-03-05T10:49:34;2.80;;;1.10;;
5456;SDS011;2751;49.802;9.944;2023-03-05T10:52:04;3.27;;;1.60;;
5456;SDS011;2751;49.802;9.944;2023-03-05T10:54:35;1.20;;;1.10;;
5456;SDS011;2751;49.802;9.944;2023-03-05T10:57:15;1.50;;;1.40;;
5456;SDS011;2751;49.802;9.944;2023-03-05T10:59:46;2.00;;;1.10;;
5456;SDS011;2751;49.802;9.944;2023-03-05T11:02:15;1.67;;;1.50;;
5456;SDS011;2751;49.802;9.944;2023-03-05T11:04:42;4.00;;;1.50;;
5456;SDS011;2751;49.802;9.944;2023-03-05T11:07:34;1.53;;;1.43;;
5456;SDS011;2751;49.802;9.944;2023-03-05T11:10:05;3.07;;;2.20;;
5456;SDS011;2751;49.802;9.944;2023-03-05T11:12:44;2.13;;;1.03;;
5456;SDS011;2751;49.802;9.944;2023-03-05T11:18:14;3.80;;;2.40;;
5456;SDS011;2751;49.802;9.944;2023-03-05T11:20:45;2.93;;;2.00;;
5456;SDS011;2751;49.802;9.944;2023-03-05T11:23:13;4.40;;;2.57;;
5456;SDS011;2751;49.802;9.944;2023-03-05T11:25:52;6.40;;;2.20;;
5456;SDS011;2751;49.802;9.944;2023-03-05T11:28:25;3.63;;;2.30;;
5456;SDS011;2751;49.802;9.944;2023-03-05T11:30:59;4.23;;;2.43;;
5456;SDS011;2751;49.802;9.944;2023-03-05T11:33:32;3.13;;;2.60;;
5456;SDS011;2751;49.802;9.944;2023-03-05T11:36:11;1.83;;;1.57;;
5456;SDS011;2751;49.802;9.944;2023-03-05T11:38:50;3.63;;;2.40;;
5456;SDS011;2751;49.802;9.944;2023-03-05T11:41:26;4.57;;;2.20;;
5456;SDS011;2751;49.802;9.944;2023-03-05T11:43:56;2.80;;;2.40;;
5456;SDS011;2751;49.802;9.944;2023-03-05T11:46:24;5.33;;;2.30;;
5456;SDS011;2751;49.802;9.944;2023-03-05T11:48:53;5.10;;;1.90;;
5456;SDS011;2751;49.802;9.944;2023-03-05T11:51:21;2.33;;;2.13;;
5456;SDS011;2751;49.802;9.944;2023-03-05T11:53:54;2.60;;;1.87;;
5456;SDS011;2751;49.802;9.944;2023-03-05T11:56:26;1.07;;;1.03;;
5456;SDS011;2751;49.802;9.944;2023-03-05T11:58:57;5.37;;;1.90;;
5456;SDS011;2751;49.802;9.944;2023-03-05T12:01:28;1.50;;;1.40;;
5456;SDS011;2751;49.802;9.944;2023-03-05T12:03:58;4.73;;;2.13;;
5456;SDS011;2751;49.802;9.944;2023-03-05T12:06:27;2.83;;;1.83;;
5456;SDS011;2751;49.802;9.944;2023-03-05T12:08:59;2.50;;;2.30;;
5456;SDS011;2751;49.802;9.944;2023-03-05T12:11:33;3.13;;;2.70;;
5456;SDS011;2751;49.802;9.944;2023-03-05T12:14:03;7.10;;;2.70;;
5456;SDS011;2751;49.802;9.944;2023-03-05T12:16:36;5.80;;;2.50;;
5456;SDS011;2751;49.802;9.944;2023-03-05T12:19:16;2.10;;;2.00;;
5456;SDS011;2751;49.802;9.944;2023-03-05T12:21:52;5.40;;;2.50;;
5456;SDS011;2751;49.802;9.944;2023-03-05T12:24:33;2.70;;;2.27;;
5456;SDS011;2751;49.802;9.944;2023-03-05T12:27:08;2.30;;;2.10;;
5456;SDS011;2751;49.802;9.944;2023-03-05T12:29:40;3.47;;;2.67;;
5456;SDS011;2751;49.802;9.944;2023-03-05T12:35:28;3.87;;;1.67;;
5456;SDS011;2751;49.802;9.944;2023-03-05T12:40:51;4.00;;;2.10;;
5456;SDS011;2751;49.802;9.944;2023-03-05T12:43:29;2.80;;;1.60;;
5456;SDS011;2751;49.802;9.944;2023-03-05T12:48:49;3.23;;;2.77;;
5456;SDS011;2751;49.802;9.944;2023-03-05T12:51:27;2.80;;;2.60;;
5456;SDS011;2751;49.802;9.944;2023-03-05T12:53:56;3.47;;;2.47;;
5456;SDS011;2751;49.802;9.944;2023-03-05T12:56:40;2.50;;;1.60;;
5456;SDS011;2751;49.802;9.944;2023-03-05T12:59:14;1.40;;;1.00;;
5456;SDS011;2751;49.802;9.944;2023-03-05T13:01:46;2.40;;;2.13;;
5456;SDS011;2751;49.802;9.944;2023-03-05T13:04:18;2.23;;;2.03;;
5456;SDS011;2751;49.802;9.944;2023-03-05T13:06:56;3.00;;;2.70;;
5456;SDS011;2751;49.802;9.944;2023-03-05T13:09:25;2.77;;;2.03;;
5456;SDS011;2751;49.802;9.944;2023-03-05T13:11:54;5.40;;;2.83;;
5456;SDS011;2751;49.802;9.944;2023-03-05T13:14:26;2.33;;;1.70;;
5456;SDS011;2751;49.802;9.944;2023-03-05T13:16:56;3.33;;;2.43;;
5456;SDS011;2751;49.802;9.944;2023-03-05T13:19:23;3.20;;;1.70;;
5456;SDS011;2751;49.802;9.944;2023-03-05T13:21:56;2.50;;;2.30;;
5456;SDS011;2751;49.802;9.944;2023-03-05T13:24:24;2.97;;;2.67;;
5456;SDS011;2751;49.802;9.944;2023-03-05T13:26:51;5.30;;;3.10;;
5456;SDS011;2751;49.802;9.944;2023-03-05T13:29:18;3.10;;;2.27;;
5456;SDS011;2751;49.802;9.944;2023-03-05T13:31:48;2.67;;;2.47;;
5456;SDS011;2751;49.802;9.944;2023-03-05T13:34:17;3.20;;;2.70;;
5456;SDS011;2751;49.802;9.944;2023-03-05T13:36:48;2.50;;;2.20;;
5456;SDS011;2751;49.802;9.944;2023-03-05T13:39:20;3.47;;;1.93;;
5456;SDS011;2751;49.802;9.944;2023-03-05T13:41:58;4.57;;;3.70;;
5456;SDS011;2751;49.802;9.944;2023-03-05T13:44:27;6.97;;;3.30;;
5456;SDS011;2751;49.802;9.944;2023-03-05T13:47:06;5.50;;;3.10;;
5456;SDS011;2751;49.802;9.944;2023-03-05T13:49:35;4.40;;;3.20;;
5456;SDS011;2751;49.802;9.944;2023-03-05T13:52:02;4.23;;;2.83;;
5456;SDS011;2751;49.802;9.944;2023-03-05T13:54:30;5.87;;;3.27;;
5456;SDS011;2751;49.802;9.944;2023-03-05T13:56:58;4.80;;;2.97;;
5456;SDS011;2751;49.802;9.944;2023-03-05T13:59:26;2.03;;;1.93;;
5456;SDS011;2751;49.802;9.944;2023-03-05T14:01:55;5.03;;;3.00;;
5456;SDS011;2751;49.802;9.944;2023-03-05T14:04:26;4.43;;;2.87;;
5456;SDS011;2751;49.802;9.944;2023-03-05T14:06:56;4.83;;;3.13;;
5456;SDS011;2751;49.802;9.944;2023-03-05T14:09:25;3.47;;;2.40;;
5456;SDS011;2751;49.802;9.944;2023-03-05T14:11:55;2.50;;;2.30;;
5456;SDS011;2751;49.802;9.944;2023-03-05T14:14:24;3.40;;;2.60;;
5456;SDS011;2751;49.802;9.944;2023-03-05T14:16:52;5.40;;;2.97;;
5456;SDS011;2751;49.802;9.944;2023-03-05T14:19:30;6.17;;;3.13;;
5456;SDS011;2751;49.802;9.944;2023-03-05T14:21:59;2.90;;;2.60;;
5456;SDS011;2751;49.802;9.944;2023-03-05T14:24:27;2.00;;;1.70;;
5456;SDS011;2751;49.802;9.944;2023-03-05T14:26:56;1.57;;;1.10;;
5456;SDS011;2751;49.802;9.944;2023-03-05T14:29:24;4.60;;;3.03;;
5456;SDS011;2751;49.802;9.944;2023-03-05T14:31:53;4.00;;;3.30;;
5456;SDS011;2751;49.802;9.944;2023-03-05T14:34:24;2.50;;;2.30;;
5456;SDS011;2751;49.802;9.944;2023-03-05T14:36:54;4.50;;;3.00;;
5456;SDS011;2751;49.802;9.944;2023-03-05T14:39:28;2.87;;;1.97;;
5456;SDS011;2751;49.802;9.944;2023-03-05T14:42:14;4.53;;;3.30;;
5456;SDS011;2751;49.802;9.944;2023-03-05T14:44:50;5.60;;;3.37;;
5456;SDS011;2751;49.802;9.944;2023-03-05T14:47:17;4.07;;;3.17;;
5456;SDS011;2751;49.802;9.944;2023-03-05T14:49:44;4.07;;;2.77;;
5456;SDS011;2751;49.802;9.944;2023-03-05T14:52:14;3.50;;;2.93;;
5456;SDS011;2751;49.802;9.944;2023-03-05T14:54:42;4.70;;;3.07;;
5456;SDS011;2751;49.802;9.944;2023-03-05T14:57:09;4.10;;;2.90;;
5456;SDS011;2751;49.802;9.944;2023-03-05T14:59:40;5.40;;;3.40;;
5456;SDS011;2751;49.802;9.944;2023-03-05T15:02:09;3.90;;;2.23;;
5456;SDS011;2751;49.802;9.944;2023-03-05T15:04:41;4.07;;;2.63;;
5456;SDS011;2751;49.802;9.944;2023-03-05T15:07:10;3.03;;;2.60;;
5456;SDS011;2751;49.802;9.944;2023-03-05T15:09:43;2.30;;;1.87;;
5456;SDS011;2751;49.802;9.944;2023-03-05T15:12:10;3.90;;;2.10;;
5456;SDS011;2751;49.802;9.944;2023-03-05T15:14:38;1.73;;;1.57;;
5456;SDS011;2751;49.802;9.944;2023-03-05T15:17:09;3.60;;;2.53;;
5456;SDS011;2751;49.802;9.944;2023-03-05T15:19:40;3.53;;;3.03;;
5456;SDS011;2751;49.802;9.944;2023-03-05T15:22:08;3.83;;;2.33;;
5456;SDS011;2751;49.802;9.944;2023-03-05T15:24:36;3.13;;;2.80;;
5456;SDS011;2751;49.802;9.944;2023-03-05T15:27:03;4.10;;;3.43;;
5456;SDS011;2751;49.802;9.944;2023-03-05T15:29:31;3.63;;;2.80;;
5456;SDS011;2751;49.802;9.944;2023-03-05T15:31:58;3.87;;;3.10;;
5456;SDS011;2751;49.802;9.944;2023-03-05T15:34:26;3.17;;;2.87;;
5456;SDS011;2751;49.802;9.944;2023-03-05T15:36:53;5.53;;;3.73;;
5456;SDS011;2751;49.802;9.944;2023-03-05T15:39:20;5.47;;;3.67;;